createdAt,value
2023-04-12T00:00:37.758Z,43.07
2023-04-12T00:01:37.955Z,44.14
2023-04-12T00:02:38.217Z,39.63
2023-04-12T00:03:38.139Z,39.97
2023-04-12T00:04:38.144Z,38.91
2023-04-12T00:05:38.043Z,43.18
2023-04-12T00:06:38.113Z,40.19
2023-04-12T00:07:38.168Z,43.26
2023-04-12T00:08:38.267Z,42.87
2023-04-12T00:09:38.334Z,42.62
2023-04-12T00:10:38.336Z,43.40
2023-04-12T00:11:38.389Z,44.75
2023-04-12T00:12:38.463Z,42.10
2023-04-12T00:13:38.530Z,43.52
2023-04-12T00:14:38.629Z,45.43
2023-04-12T00:15:38.661Z,43.82
2023-04-12T00:16:38.717Z,45.41
2023-04-12T00:17:38.799Z,42.79
2023-04-12T00:18:38.809Z,41.35
2023-04-12T00:19:38.898Z,42.89
2023-04-12T00:20:38.970Z,40.05
2023-04-12T00:21:38.993Z,44.52
2023-04-12T00:22:39.113Z,44.08
2023-04-12T00:23:39.142Z,45.15
2023-04-12T00:24:39.192Z,44.83
2023-04-12T00:25:39.276Z,39.04
2023-04-12T00:26:39.317Z,45.30
2023-04-12T00:27:39.372Z,43.35
2023-04-12T00:28:39.447Z,42.07
2023-04-12T00:29:39.513Z,42.61
2023-04-12T00:30:39.543Z,42.66
2023-04-12T00:31:39.666Z,40.90
2023-04-12T00:32:39.737Z,43.12
2023-04-12T00:33:39.741Z,42.63
2023-04-12T00:34:39.847Z,46.65
2023-04-12T00:35:39.848Z,44.57
2023-04-12T00:36:39.994Z,42.68
2023-04-12T00:37:40.045Z,46.92
2023-04-12T00:38:40.047Z,44.84
2023-04-12T00:39:40.131Z,45.33
2023-04-12T00:40:40.171Z,44.92
2023-04-12T00:41:40.246Z,46.50
2023-04-12T00:42:40.292Z,43.13
2023-04-12T00:43:40.374Z,43.40
2023-04-12T00:44:40.403Z,43.74
2023-04-12T00:45:40.523Z,43.85
2023-04-12T00:46:40.659Z,47.87
2023-04-12T00:47:40.634Z,46.55
2023-04-12T00:48:40.710Z,45.86
2023-04-12T00:49:40.734Z,43.56
2023-04-12T00:50:40.814Z,42.97
2023-04-12T00:51:40.846Z,45.18
2023-04-12T00:52:40.997Z,43.32
2023-04-12T00:53:40.965Z,45.59
2023-04-12T00:54:40.991Z,45.59
2023-04-12T00:55:41.052Z,43.96
2023-04-12T00:56:41.121Z,43.26
2023-04-12T00:57:41.180Z,43.31
2023-04-12T00:58:41.233Z,48.54
2023-04-12T00:59:41.276Z,44.66
2023-04-12T01:00:41.402Z,48.14
2023-04-12T01:01:41.584Z,45.97
2023-04-12T01:02:41.637Z,45.13
2023-04-12T01:03:41.648Z,44.44
2023-04-12T01:04:41.633Z,46.67
2023-04-12T01:05:41.705Z,43.77
2023-04-12T01:06:41.740Z,42.74
2023-04-12T01:07:41.854Z,44.96
2023-04-12T01:08:41.928Z,46.86
2023-04-12T01:09:41.898Z,44.17
2023-04-12T01:10:41.963Z,43.23
2023-04-12T01:11:42.001Z,45.81
2023-04-12T01:12:42.101Z,44.68
2023-04-12T01:13:42.165Z,46.55
2023-04-12T01:14:42.198Z,45.73
2023-04-12T01:15:42.284Z,44.56
2023-04-12T01:16:42.450Z,44.47
2023-04-12T01:17:42.470Z,44.92
2023-04-12T01:18:42.519Z,41.90
2023-04-12T01:19:42.541Z,45.18
2023-04-12T01:20:42.604Z,43.24
2023-04-12T01:21:42.612Z,43.04
2023-04-12T01:22:42.722Z,44.96
2023-04-12T01:23:42.767Z,45.55
2023-04-12T01:24:42.832Z,45.48
2023-04-12T01:25:42.985Z,46.24
2023-04-12T01:26:42.963Z,47.44
2023-04-12T01:27:43.004Z,44.79
2023-04-12T01:28:43.047Z,47.78
2023-04-12T01:29:43.093Z,46.61
2023-04-12T01:30:43.189Z,43.98
2023-04-12T01:31:43.336Z,47.69
2023-04-12T01:32:43.314Z,45.50
2023-04-12T01:33:43.370Z,44.24
2023-04-12T01:34:43.463Z,45.77
2023-04-12T01:35:43.539Z,45.00
2023-04-12T01:36:43.567Z,42.42
2023-04-12T01:37:43.586Z,46.72
2023-04-12T01:38:43.679Z,46.39
2023-04-12T01:39:43.721Z,50.03
2023-04-12T01:40:43.770Z,47.70
2023-04-12T01:41:43.826Z,45.96
2023-04-12T01:42:43.835Z,47.30
2023-04-12T01:43:43.904Z,48.25
2023-04-12T01:44:43.936Z,46.20
2023-04-12T01:45:44.130Z,42.97
2023-04-12T01:46:44.081Z,45.55
2023-04-12T01:47:44.144Z,45.51
2023-04-12T01:48:44.184Z,46.25
2023-04-12T01:49:44.223Z,48.42
2023-04-12T01:50:44.282Z,49.34
2023-04-12T01:51:44.354Z,44.35
2023-04-12T01:52:44.331Z,45.21
2023-04-12T01:53:44.416Z,46.27
2023-04-12T01:54:44.425Z,48.65
2023-04-12T01:55:44.487Z,48.23
2023-04-12T01:56:44.505Z,45.86
2023-04-12T01:57:44.547Z,44.51
2023-04-12T01:58:44.612Z,49.49
2023-04-12T01:59:44.659Z,44.03
2023-04-12T02:00:44.782Z,47.42
2023-04-12T02:01:44.865Z,46.07
2023-04-12T02:02:45.028Z,46.78
2023-04-12T02:03:44.989Z,46.80
2023-04-12T02:04:45.522Z,48.92
2023-04-12T02:05:45.019Z,45.62
2023-04-12T02:06:45.139Z,47.22
2023-04-12T02:07:45.125Z,46.36
2023-04-12T02:08:45.189Z,44.15
2023-04-12T02:09:45.248Z,49.35
2023-04-12T02:10:45.250Z,47.08
2023-04-12T02:11:45.275Z,47.77
2023-04-12T02:12:45.366Z,47.97
2023-04-12T02:13:45.462Z,45.18
2023-04-12T02:14:45.438Z,45.90
2023-04-12T02:15:45.541Z,48.89
2023-04-12T02:16:45.493Z,47.25
2023-04-12T02:17:45.649Z,46.10
2023-04-12T02:18:45.612Z,45.58
2023-04-12T02:19:45.712Z,45.70
2023-04-12T02:20:45.688Z,47.41
2023-04-12T02:21:45.739Z,48.62
2023-04-12T02:22:45.735Z,49.51
2023-04-12T02:23:45.733Z,46.35
2023-04-12T02:24:45.887Z,45.95
2023-04-12T02:25:45.852Z,47.74
2023-04-12T02:26:45.868Z,46.78
2023-04-12T02:27:45.940Z,46.96
2023-04-12T02:28:45.973Z,47.65
2023-04-12T02:29:45.996Z,50.72
2023-04-12T02:30:46.136Z,43.63
2023-04-12T02:31:46.151Z,45.02
2023-04-12T02:32:46.203Z,44.14
2023-04-12T02:33:46.227Z,48.26
2023-04-12T02:34:46.331Z,44.28
2023-04-12T02:35:46.266Z,49.95
2023-04-12T02:36:46.333Z,49.23
2023-04-12T02:37:46.349Z,50.59
2023-04-12T02:38:46.435Z,47.10
2023-04-12T02:39:46.460Z,46.59
2023-04-12T02:40:46.537Z,49.88
2023-04-12T02:41:46.539Z,47.71
2023-04-12T02:42:46.601Z,45.69
2023-04-12T02:43:46.595Z,45.52
2023-04-12T02:44:46.707Z,52.01
2023-04-12T02:45:46.729Z,49.81
2023-04-12T02:46:46.801Z,46.27
2023-04-12T02:47:46.797Z,47.10
2023-04-12T02:48:46.849Z,46.13
2023-04-12T02:49:46.852Z,49.75
2023-04-12T02:50:46.883Z,48.44
2023-04-12T02:51:47.468Z,48.38
2023-04-12T02:52:46.947Z,46.37
2023-04-12T02:53:46.973Z,48.28
2023-04-12T02:54:47.027Z,46.97
2023-04-12T02:55:47.088Z,46.61
2023-04-12T02:56:47.543Z,46.88
2023-04-12T02:57:47.095Z,46.35
2023-04-12T02:58:47.098Z,49.33
2023-04-12T02:59:47.175Z,48.78
2023-04-12T03:00:47.178Z,45.50
2023-04-12T03:01:47.331Z,49.45
2023-04-12T03:02:47.386Z,48.07
2023-04-12T03:03:47.350Z,48.13
2023-04-12T03:04:47.385Z,47.50
2023-04-12T03:05:47.369Z,49.31
2023-04-12T03:06:47.367Z,46.70
2023-04-12T03:07:47.367Z,51.98
2023-04-12T03:08:47.444Z,48.97
2023-04-12T03:09:47.486Z,46.64
2023-04-12T03:10:47.595Z,50.00
2023-04-12T03:11:47.506Z,46.52
2023-04-12T03:12:47.581Z,49.41
2023-04-12T03:13:47.679Z,49.85
2023-04-12T03:14:47.626Z,45.91
2023-04-12T03:15:47.727Z,44.19
2023-04-12T03:16:47.738Z,49.39
2023-04-12T03:17:47.880Z,50.97
2023-04-12T03:18:47.807Z,46.61
2023-04-12T03:19:47.964Z,50.37
2023-04-12T03:20:47.966Z,49.45
2023-04-12T03:21:47.935Z,46.15
2023-04-12T03:22:48.021Z,50.83
2023-04-12T03:23:47.989Z,49.20
2023-04-12T03:24:48.073Z,46.16
2023-04-12T03:25:48.124Z,51.22
2023-04-12T03:26:48.128Z,50.53
2023-04-12T03:27:48.171Z,48.30
2023-04-12T03:28:48.221Z,47.84
2023-04-12T03:29:48.241Z,50.11
2023-04-12T03:30:48.356Z,50.19
2023-04-12T03:31:48.386Z,51.92
2023-04-12T03:32:48.497Z,49.17
2023-04-12T03:33:48.436Z,46.36
2023-04-12T03:34:48.451Z,48.79
2023-04-12T03:35:48.557Z,47.66
2023-04-12T03:36:48.610Z,48.55
2023-04-12T03:37:48.612Z,46.56
2023-04-12T03:38:48.550Z,51.13
2023-04-12T03:39:48.717Z,51.01
2023-04-12T03:40:48.700Z,48.39
2023-04-12T03:41:48.640Z,49.33
2023-04-12T03:42:48.730Z,47.45
2023-04-12T03:43:48.691Z,51.56
2023-04-12T03:44:48.669Z,49.36
2023-04-12T03:45:48.759Z,51.21
2023-04-12T03:46:48.716Z,48.92
2023-04-12T03:47:48.856Z,53.07
2023-04-12T03:48:48.770Z,48.91
2023-04-12T03:50:01.753Z,48.60
2023-04-12T03:50:49.883Z,48.77
2023-04-12T03:51:48.698Z,49.39
2023-04-12T03:52:48.692Z,48.78
2023-04-12T03:53:48.701Z,50.20
2023-04-12T03:54:48.719Z,45.77
2023-04-12T03:55:48.724Z,53.19
2023-04-12T03:56:48.730Z,50.89
2023-04-12T03:57:48.690Z,51.60
2023-04-12T03:58:48.638Z,48.29
2023-04-12T03:59:48.637Z,46.68
2023-04-12T04:00:48.650Z,48.57
2023-04-12T04:01:48.752Z,49.80
2023-04-12T04:02:48.698Z,49.72
2023-04-12T04:03:48.742Z,48.00
2023-04-12T04:04:48.866Z,49.26
2023-04-12T04:05:48.642Z,48.40
2023-04-12T04:06:48.816Z,50.91
2023-04-12T04:07:48.660Z,50.79
2023-04-12T04:08:48.626Z,49.47
2023-04-12T04:09:48.617Z,49.99
2023-04-12T04:10:48.623Z,47.13
2023-04-12T04:11:48.720Z,43.43
2023-04-12T04:12:48.589Z,40.15
2023-04-12T04:13:48.555Z,42.46
2023-04-12T04:14:48.555Z,42.89
2023-04-12T04:15:48.546Z,40.63
2023-04-12T04:16:48.722Z,45.49
2023-04-12T04:17:48.628Z,48.73
2023-04-12T04:18:48.540Z,41.03
2023-04-12T04:19:49.502Z,42.44
2023-04-12T04:20:48.550Z,48.11
2023-04-12T04:21:48.486Z,46.45
2023-04-12T04:22:48.593Z,39.92
2023-04-12T04:23:48.617Z,42.59
2023-04-12T04:24:48.609Z,43.63
2023-04-12T04:25:48.582Z,41.60
2023-04-12T04:26:48.631Z,45.60
2023-04-12T04:27:48.553Z,45.95
2023-04-12T04:28:48.735Z,45.33
2023-04-12T04:29:48.650Z,39.89
2023-04-12T04:30:48.665Z,41.93
2023-04-12T04:31:48.813Z,43.14
2023-04-12T04:32:48.749Z,43.59
2023-04-12T04:33:48.850Z,39.71
2023-04-12T04:34:48.789Z,37.75
2023-04-12T04:35:48.801Z,41.26
2023-04-12T04:36:48.929Z,37.94
2023-04-12T04:37:48.824Z,44.60
2023-04-12T04:38:48.823Z,40.49
2023-04-12T04:39:48.937Z,39.80
2023-04-12T04:40:48.887Z,38.38
2023-04-12T04:41:48.930Z,37.54
2023-04-12T04:42:48.949Z,40.16
2023-04-12T04:43:48.846Z,39.93
2023-04-12T04:44:48.953Z,39.27
2023-04-12T04:45:48.902Z,40.29
2023-04-12T04:46:48.872Z,36.68
2023-04-12T04:47:48.955Z,38.47
2023-04-12T04:48:48.973Z,37.01
2023-04-12T04:49:48.893Z,42.96
2023-04-12T04:50:48.861Z,39.81
2023-04-12T04:51:48.908Z,41.10
2023-04-12T04:52:49.014Z,38.93
2023-04-12T04:53:48.915Z,41.30
2023-04-12T04:54:49.037Z,38.59
2023-04-12T04:55:48.975Z,41.62
2023-04-12T04:56:49.020Z,41.15
2023-04-12T04:57:48.998Z,42.23
2023-04-12T04:58:49.006Z,40.66
2023-04-12T04:59:49.022Z,38.18
2023-04-12T05:00:49.118Z,39.05
2023-04-12T05:01:49.241Z,40.01
2023-04-12T05:02:49.209Z,37.75
2023-04-12T05:03:49.204Z,41.16
2023-04-12T05:04:49.072Z,36.16
2023-04-12T05:05:49.195Z,39.44
2023-04-12T05:06:49.095Z,36.99
2023-04-12T05:07:49.210Z,35.02
2023-04-12T05:08:49.182Z,35.10
2023-04-12T05:09:49.185Z,38.69
2023-04-12T05:10:49.241Z,36.81
2023-04-12T05:11:49.236Z,37.92
2023-04-12T05:12:49.277Z,36.45
2023-04-12T05:13:49.343Z,35.79
2023-04-12T05:14:51.635Z,33.92
2023-04-12T05:15:49.343Z,37.15
2023-04-12T05:16:49.399Z,36.69
2023-04-12T05:17:49.308Z,33.10
2023-04-12T05:18:49.299Z,36.32
2023-04-12T05:19:49.397Z,37.82
2023-04-12T05:20:49.298Z,34.56
2023-04-12T05:21:49.302Z,34.58
2023-04-12T05:22:49.304Z,33.55
2023-04-12T05:23:49.313Z,30.82
2023-04-12T05:24:49.331Z,33.67
2023-04-12T05:25:49.333Z,32.23
2023-04-12T05:26:49.248Z,31.77
2023-04-12T05:27:52.008Z,33.18
2023-04-12T05:28:49.284Z,33.25
2023-04-12T05:29:49.206Z,33.55
2023-04-12T05:30:49.285Z,32.64
2023-04-12T05:31:49.279Z,33.20
2023-04-12T05:32:49.355Z,34.83
2023-04-12T05:33:49.222Z,29.36
2023-04-12T05:34:49.201Z,23.84
2023-04-12T05:35:49.339Z,23.65
2023-04-12T05:36:49.718Z,28.36
2023-04-12T05:37:49.142Z,31.12
2023-04-12T05:38:49.235Z,36.38
2023-04-12T05:39:49.209Z,29.17
2023-04-12T05:40:49.119Z,25.68
2023-04-12T05:41:49.126Z,24.44
2023-04-12T05:42:49.155Z,25.00
2023-04-12T05:43:49.261Z,27.34
2023-04-12T05:44:49.884Z,27.22
2023-04-12T05:45:49.213Z,26.55
2023-04-12T05:46:49.188Z,26.45
2023-04-12T05:47:49.237Z,26.06
2023-04-12T05:48:49.076Z,27.53
2023-04-12T05:49:49.132Z,28.22
2023-04-12T05:50:49.102Z,29.07
2023-04-12T05:51:49.621Z,28.94
2023-04-12T05:52:49.042Z,34.00
2023-04-12T05:53:49.120Z,42.70
2023-04-12T05:54:49.016Z,49.62
2023-04-12T05:55:49.023Z,57.07
2023-04-12T05:56:49.090Z,66.19
2023-04-12T05:57:49.040Z,70.69
2023-04-12T05:58:49.058Z,73.85
2023-04-12T05:59:49.516Z,77.79
2023-04-12T06:00:49.069Z,77.44
2023-04-12T06:01:49.086Z,85.96
2023-04-12T06:02:49.090Z,92.89
2023-04-12T06:03:49.165Z,89.52
2023-04-12T06:04:50.864Z,87.93
2023-04-12T06:05:49.214Z,99.86
2023-04-12T06:06:49.139Z,100.50
2023-04-12T06:07:49.579Z,100.47
2023-04-12T06:08:49.320Z,111.36
2023-04-12T06:09:49.137Z,111.23
2023-04-12T06:10:49.252Z,114.53
2023-04-12T06:11:49.259Z,122.61
2023-04-12T06:12:49.360Z,126.16
2023-04-12T06:13:49.227Z,125.63
2023-04-12T06:14:49.295Z,134.79
2023-04-12T06:15:49.429Z,137.51
2023-04-12T06:16:49.419Z,141.27
2023-04-12T06:17:49.554Z,141.66
2023-04-12T06:18:49.579Z,144.42
2023-04-12T06:19:49.606Z,147.36
2023-04-12T06:20:49.705Z,144.85
2023-04-12T06:21:49.687Z,147.38
2023-04-12T06:22:49.742Z,149.82
2023-04-12T06:23:56.534Z,156.85
2023-04-12T06:24:50.048Z,157.36
2023-04-12T06:25:49.782Z,158.64
2023-04-12T06:26:49.795Z,160.50
2023-04-12T06:27:49.862Z,163.93
2023-04-12T06:28:49.778Z,172.46
2023-04-12T06:29:50.016Z,175.01
2023-04-12T06:30:49.704Z,172.37
2023-04-12T06:31:49.826Z,174.49
2023-04-12T06:32:49.748Z,179.13
2023-04-12T06:33:49.806Z,175.31
2023-04-12T06:34:49.808Z,175.12
2023-04-12T06:35:50.553Z,169.16
2023-04-12T06:36:49.722Z,173.16
2023-04-12T06:37:49.744Z,156.34
2023-04-12T06:38:49.730Z,144.24
2023-04-12T06:39:50.060Z,138.89
2023-04-12T06:40:49.675Z,144.86
2023-04-12T06:41:49.849Z,122.73
2023-04-12T06:42:49.750Z,111.46
2023-04-12T06:43:49.644Z,104.55
2023-04-12T06:44:49.713Z,106.67
2023-04-12T06:45:49.723Z,110.04
2023-04-12T06:46:49.751Z,115.88
2023-04-12T06:47:49.653Z,125.14
2023-04-12T06:48:49.621Z,127.88
2023-04-12T06:49:49.705Z,129.39
2023-04-12T06:50:49.611Z,129.01
2023-04-12T06:51:49.605Z,133.28
2023-04-12T06:52:49.621Z,131.32
2023-04-12T06:53:49.636Z,136.75
2023-04-12T06:54:49.639Z,140.75
2023-04-12T06:55:49.567Z,138.47
2023-04-12T06:56:49.593Z,140.84
2023-04-12T06:57:49.671Z,144.46
2023-04-12T06:58:49.865Z,143.15
2023-04-12T06:59:49.563Z,147.83
2023-04-12T07:00:50.164Z,148.52
2023-04-12T07:01:49.837Z,145.35
2023-04-12T07:02:49.905Z,124.13
2023-04-12T07:03:49.978Z,114.07
2023-04-12T07:04:49.899Z,119.60
2023-04-12T07:05:49.938Z,104.23
2023-04-12T07:06:49.956Z,118.73
2023-04-12T07:07:50.039Z,118.77
2023-04-12T07:08:50.078Z,124.11
2023-04-12T07:09:50.141Z,135.64
2023-04-12T07:10:50.204Z,133.11
2023-04-12T07:11:50.253Z,136.73
2023-04-12T07:12:50.304Z,136.39
2023-04-12T07:13:50.411Z,138.72
2023-04-12T07:14:50.406Z,140.53
2023-04-12T07:15:50.494Z,146.64
2023-04-12T07:16:50.553Z,146.95
2023-04-12T07:17:50.698Z,150.71
2023-04-12T07:18:50.783Z,152.46
2023-04-12T07:19:51.064Z,152.96
2023-04-12T07:20:50.780Z,156.10
2023-04-12T07:21:50.861Z,158.88
2023-04-12T07:22:50.849Z,158.29
2023-04-12T07:23:50.882Z,161.39
2023-04-12T07:24:51.081Z,162.80
2023-04-12T07:25:50.988Z,167.93
2023-04-12T07:26:51.013Z,168.88
2023-04-12T07:27:51.957Z,166.97
2023-04-12T07:28:51.134Z,178.52
2023-04-12T07:29:51.148Z,177.71
2023-04-12T07:30:51.212Z,184.10
2023-04-12T07:31:51.284Z,148.58
2023-04-12T07:32:51.312Z,114.51
2023-04-12T07:33:51.402Z,94.63
2023-04-12T07:34:51.319Z,93.69
2023-04-12T07:35:51.371Z,101.78
2023-04-12T07:36:51.362Z,120.61
2023-04-12T07:37:51.379Z,132.34
2023-04-12T07:38:51.584Z,134.99
2023-04-12T07:39:51.550Z,145.35
2023-04-12T07:40:51.490Z,149.66
2023-04-12T07:41:51.526Z,148.86
2023-04-12T07:42:51.514Z,155.18
2023-04-12T07:43:51.550Z,148.45
2023-04-12T07:44:51.607Z,149.58
2023-04-12T07:45:51.585Z,151.12
2023-04-12T07:46:51.635Z,154.50
2023-04-12T07:47:51.677Z,155.67
2023-04-12T07:48:51.731Z,160.83
2023-04-12T07:49:51.757Z,166.33
2023-04-12T07:50:51.797Z,167.85
2023-04-12T07:51:51.868Z,171.35
2023-04-12T07:52:51.906Z,178.71
2023-04-12T07:53:51.994Z,183.65
2023-04-12T07:54:52.209Z,185.28
2023-04-12T07:55:52.327Z,183.45
2023-04-12T07:56:52.210Z,191.90
2023-04-12T07:57:52.257Z,194.24
2023-04-12T07:58:52.330Z,199.17
2023-04-12T07:59:52.351Z,204.65
2023-04-12T08:00:52.437Z,203.92
2023-04-12T08:01:52.553Z,200.16
2023-04-12T08:02:52.630Z,203.80
2023-04-12T08:03:52.659Z,212.60
2023-04-12T08:04:52.513Z,215.93
2023-04-12T08:05:52.507Z,216.09
2023-04-12T08:06:52.526Z,220.70
2023-04-12T08:07:52.720Z,227.51
2023-04-12T08:08:52.646Z,230.58
2023-04-12T08:09:52.639Z,231.86
2023-04-12T08:10:52.720Z,236.43
2023-04-12T08:11:52.764Z,234.02
2023-04-12T08:12:52.832Z,235.29
2023-04-12T08:13:52.852Z,239.35
2023-04-12T08:14:52.849Z,244.01
2023-04-12T08:15:52.877Z,243.69
2023-04-12T08:16:52.857Z,245.98
2023-04-12T08:17:52.920Z,246.55
2023-04-12T08:18:52.917Z,248.40
2023-04-12T08:19:53.118Z,248.51
2023-04-12T08:20:52.989Z,250.00
2023-04-12T08:21:53.128Z,247.30
2023-04-12T08:22:53.289Z,246.76
2023-04-12T08:23:53.453Z,244.96
2023-04-12T08:24:53.533Z,247.94
2023-04-12T08:25:54.149Z,248.00
2023-04-12T08:26:53.646Z,249.38
2023-04-12T08:27:53.647Z,245.95
2023-04-12T08:28:53.759Z,243.10
2023-04-12T08:29:53.663Z,247.51
2023-04-12T08:30:53.709Z,248.84
2023-04-12T08:31:53.726Z,247.43
2023-04-12T08:32:53.896Z,244.32
2023-04-12T08:33:53.890Z,244.87
2023-04-12T08:34:53.918Z,242.57
2023-04-12T08:35:54.209Z,246.64
2023-04-12T08:36:53.940Z,245.72
2023-04-12T08:37:54.016Z,244.46
2023-04-12T08:38:55.075Z,243.23
2023-04-12T08:39:54.080Z,241.59
2023-04-12T08:40:54.155Z,243.99
2023-04-12T08:41:54.086Z,240.92
2023-04-12T08:42:54.185Z,242.80
2023-04-12T08:43:54.165Z,238.43
2023-04-12T08:44:54.326Z,221.29
2023-04-12T08:45:54.371Z,216.82
2023-04-12T08:46:54.418Z,213.88
2023-04-12T08:47:54.447Z,211.02
2023-04-12T08:48:54.340Z,216.18
2023-04-12T08:49:54.418Z,220.11
2023-04-12T08:50:54.437Z,218.38
2023-04-12T08:51:54.630Z,217.16
2023-04-12T08:52:54.429Z,221.14
2023-04-12T08:53:54.434Z,201.54
2023-04-12T08:54:54.445Z,188.33
2023-04-12T08:55:54.501Z,191.23
2023-04-12T08:56:54.512Z,173.64
2023-04-12T08:57:54.574Z,131.93
2023-04-12T08:58:54.584Z,100.13
2023-04-12T08:59:54.622Z,87.57
2023-04-12T09:00:54.690Z,83.28
2023-04-12T09:01:54.957Z,90.56
2023-04-12T09:02:55.028Z,100.56
2023-04-12T09:03:56.694Z,116.91
2023-04-12T09:04:54.905Z,121.33
2023-04-12T09:05:54.939Z,139.80
2023-04-12T09:06:55.055Z,137.91
2023-04-12T09:07:55.063Z,140.16
2023-04-12T09:08:55.142Z,143.98
2023-04-12T09:09:55.172Z,136.53
2023-04-12T09:10:55.179Z,141.65
2023-04-12T09:11:55.278Z,138.06
2023-04-12T09:12:55.285Z,136.12
2023-04-12T09:13:55.375Z,132.96
2023-04-12T09:14:55.412Z,139.02
2023-04-12T09:15:55.534Z,135.02
2023-04-12T09:16:55.474Z,141.04
2023-04-12T09:17:55.619Z,143.19
2023-04-12T09:18:55.696Z,143.43
2023-04-12T09:19:55.549Z,142.43
2023-04-12T09:20:55.519Z,145.42
2023-04-12T09:21:55.592Z,141.89
2023-04-12T09:22:55.642Z,146.34
2023-04-12T09:23:55.882Z,142.57
2023-04-12T09:24:55.657Z,145.10
2023-04-12T09:25:55.690Z,143.26
2023-04-12T09:26:55.706Z,147.16
2023-04-12T09:27:55.757Z,145.55
2023-04-12T09:28:55.803Z,145.37
2023-04-12T09:29:55.822Z,148.77
2023-04-12T09:30:55.832Z,143.75
2023-04-12T09:31:55.993Z,145.90
2023-04-12T09:32:55.990Z,136.97
2023-04-12T09:33:56.098Z,58.84
2023-04-12T09:34:55.956Z,23.67
2023-04-12T09:35:55.989Z,31.16
2023-04-12T09:36:56.062Z,36.62
2023-04-12T09:37:55.885Z,47.37
2023-04-12T09:38:55.933Z,47.41
2023-04-12T09:39:56.053Z,51.87
2023-04-12T09:40:55.938Z,51.10
2023-04-12T09:41:55.940Z,52.84
2023-04-12T09:42:56.011Z,54.58
2023-04-12T09:43:56.336Z,53.52
2023-04-12T09:44:56.146Z,46.56
2023-04-12T09:45:56.169Z,52.33
2023-04-12T09:46:56.313Z,50.99
2023-04-12T09:47:56.386Z,48.07
2023-04-12T09:48:56.584Z,43.70
2023-04-12T09:49:56.375Z,41.61
2023-04-12T09:50:56.431Z,42.01
2023-04-12T09:51:58.901Z,37.19
2023-04-12T09:52:56.469Z,30.67
2023-04-12T09:53:56.579Z,27.13
2023-04-12T09:54:56.458Z,31.60
2023-04-12T09:55:56.509Z,33.15
2023-04-12T09:56:56.446Z,39.12
2023-04-12T09:57:56.491Z,36.65
2023-04-12T09:58:56.596Z,42.79
2023-04-12T09:59:56.411Z,43.88
2023-04-12T10:00:56.435Z,48.90
2023-04-12T10:01:56.486Z,61.02
2023-04-12T10:02:56.915Z,51.56
2023-04-12T10:03:56.856Z,46.10
2023-04-12T10:04:56.645Z,50.45
2023-04-12T10:05:56.463Z,47.75
2023-04-12T10:06:56.367Z,42.16
2023-04-12T10:07:56.378Z,43.06
2023-04-12T10:08:56.540Z,38.30
2023-04-12T10:09:56.412Z,31.70
2023-04-12T10:10:56.395Z,25.33
2023-04-12T10:11:56.345Z,35.90
2023-04-12T10:12:56.357Z,28.39
2023-04-12T10:13:56.695Z,36.42
2023-04-12T10:14:56.366Z,39.34
2023-04-12T10:15:56.392Z,36.46
2023-04-12T10:16:56.434Z,51.91
2023-04-12T10:17:56.305Z,53.88
2023-04-12T10:18:56.514Z,45.87
2023-04-12T10:19:56.269Z,52.08
2023-04-12T10:20:56.308Z,53.05
2023-04-12T10:21:56.299Z,54.09
2023-04-12T10:22:56.285Z,57.79
2023-04-12T10:23:56.329Z,61.97
2023-04-12T10:24:56.286Z,58.02
2023-04-12T10:25:56.282Z,58.50
2023-04-12T10:26:56.297Z,61.37
2023-04-12T10:27:56.369Z,61.34
2023-04-12T10:28:58.933Z,65.84
2023-04-12T10:29:56.371Z,42.24
2023-04-12T10:30:56.369Z,46.48
2023-04-12T10:31:56.445Z,27.59
2023-04-12T10:32:56.420Z,5.54
2023-04-12T10:33:56.426Z,0.00
2023-04-12T10:34:56.452Z,0.00
2023-04-12T10:35:56.531Z,0.00
2023-04-12T10:36:56.382Z,27.35
2023-04-12T10:37:56.368Z,36.03
2023-04-12T10:38:56.505Z,54.77
2023-04-12T10:39:56.330Z,57.68
2023-04-12T10:40:56.299Z,62.38
2023-04-12T10:41:56.276Z,70.80
2023-04-12T10:42:56.301Z,69.17
2023-04-12T10:43:56.344Z,73.49
2023-04-12T10:44:57.493Z,77.90
2023-04-12T10:45:56.274Z,78.44
2023-04-12T10:46:56.303Z,79.87
2023-04-12T10:47:56.294Z,83.63
2023-04-12T10:48:56.427Z,89.40
2023-04-12T10:49:56.264Z,100.31
2023-04-12T10:50:56.234Z,101.96
2023-04-12T10:51:56.307Z,109.79
2023-04-12T10:52:56.204Z,106.86
2023-04-12T10:53:56.297Z,111.51
2023-04-12T10:54:56.256Z,109.03
2023-04-12T10:55:56.211Z,111.26
2023-04-12T10:56:56.355Z,119.06
2023-04-12T10:57:56.720Z,120.61
2023-04-12T10:58:56.297Z,114.71
2023-04-12T10:59:57.299Z,125.03
2023-04-12T11:00:56.221Z,122.92
2023-04-12T11:01:56.322Z,129.41
2023-04-12T11:02:56.388Z,128.21
2023-04-12T11:03:56.368Z,131.46
2023-04-12T11:04:56.307Z,117.19
2023-04-12T11:05:56.100Z,110.80
2023-04-12T11:06:58.538Z,104.31
2023-04-12T11:07:56.156Z,104.50
2023-04-12T11:08:56.591Z,105.48
2023-04-12T11:09:56.244Z,109.31
2023-04-12T11:10:56.162Z,115.73
2023-04-12T11:11:56.125Z,115.59
2023-04-12T11:12:56.109Z,119.41
2023-04-12T11:13:56.145Z,120.15
2023-04-12T11:14:56.156Z,121.79
2023-04-12T11:15:56.027Z,116.97
2023-04-12T11:16:56.108Z,125.54
2023-04-12T11:17:56.250Z,125.46
2023-04-12T11:18:56.286Z,125.29
2023-04-12T11:19:56.117Z,120.54
2023-04-12T11:20:56.018Z,115.15
2023-04-12T11:21:56.054Z,128.83
2023-04-12T11:22:56.070Z,130.51
2023-04-12T11:23:55.999Z,138.90
2023-04-12T11:24:56.074Z,131.89
2023-04-12T11:25:56.340Z,133.07
2023-04-12T11:26:56.037Z,133.23
2023-04-12T11:27:56.006Z,138.65
2023-04-12T11:28:56.232Z,145.66
2023-04-12T11:29:55.944Z,145.16
2023-04-12T11:30:56.015Z,146.98
2023-04-12T11:31:56.069Z,146.65
2023-04-12T11:32:55.996Z,148.36
2023-04-12T11:33:55.960Z,149.28
2023-04-12T11:34:55.945Z,152.90
2023-04-12T11:35:55.955Z,151.15
2023-04-12T11:36:55.953Z,153.98
2023-04-12T11:37:55.966Z,154.23
2023-04-12T11:38:56.264Z,152.26
2023-04-12T11:39:55.894Z,150.84
2023-04-12T11:40:55.928Z,149.70
2023-04-12T11:41:55.907Z,148.50
2023-04-12T11:42:55.902Z,152.75
2023-04-12T11:43:55.954Z,152.60
2023-04-12T11:44:59.782Z,149.81
2023-04-12T11:45:56.939Z,150.04
2023-04-12T11:46:55.925Z,150.02
2023-04-12T11:47:56.008Z,151.41
2023-04-12T11:48:55.982Z,150.21
2023-04-12T11:49:55.823Z,150.17
2023-04-12T11:51:07.634Z,151.97
2023-04-12T11:51:56.881Z,152.13
2023-04-12T11:52:55.886Z,151.26
2023-04-12T11:53:56.075Z,153.62
2023-04-12T11:54:55.819Z,155.80
2023-04-12T11:55:55.862Z,158.18
2023-04-12T11:56:55.834Z,159.80
2023-04-12T11:57:55.822Z,160.98
2023-04-12T11:58:56.219Z,160.68
2023-04-12T11:59:55.818Z,159.72
2023-04-12T12:00:55.809Z,158.37
2023-04-12T12:01:55.839Z,159.85
2023-04-12T12:03:06.838Z,159.41
2023-04-12T12:03:57.061Z,159.52
2023-04-12T12:04:56.173Z,159.86
2023-04-12T12:05:55.825Z,159.97
2023-04-12T12:06:55.975Z,158.62
2023-04-12T12:07:55.785Z,161.71
2023-04-12T12:08:55.792Z,161.39
2023-04-12T12:09:56.695Z,156.38
2023-04-12T12:11:06.358Z,157.15
2023-04-12T12:11:56.760Z,157.24
2023-04-12T12:12:55.682Z,157.52
2023-04-12T12:13:55.760Z,155.03
2023-04-12T12:14:55.728Z,157.77
2023-04-12T12:15:55.661Z,155.26
2023-04-12T12:16:55.731Z,158.07
2023-04-12T12:17:55.756Z,156.78
2023-04-12T12:18:55.740Z,155.20
2023-04-12T12:19:55.741Z,155.70
2023-04-12T12:20:55.710Z,153.20
2023-04-12T12:21:55.661Z,154.12
2023-04-12T12:22:55.661Z,154.81
2023-04-12T12:23:56.106Z,153.69
2023-04-12T12:24:55.759Z,154.64
2023-04-12T12:26:56.811Z,152.43
2023-04-12T12:27:07.547Z,152.25
2023-04-12T12:27:56.727Z,152.65
2023-04-12T12:28:55.831Z,152.53
2023-04-12T12:29:55.842Z,153.47
2023-04-12T12:30:55.940Z,152.60
2023-04-12T12:31:55.913Z,153.41
2023-04-12T12:32:55.803Z,154.78
2023-04-12T12:33:55.780Z,154.52
2023-04-12T12:34:55.889Z,154.84
2023-04-12T12:35:55.945Z,151.50
2023-04-12T12:36:56.016Z,152.09
2023-04-12T12:37:56.005Z,150.33
2023-04-12T12:38:56.372Z,150.82
2023-04-12T12:39:56.205Z,149.26
2023-04-12T12:40:56.199Z,150.56
2023-04-12T12:41:56.202Z,147.06
2023-04-12T12:42:56.336Z,146.02